sensor_id;sensor_type;location;lat;lon;timestamp;pressure;altitude;pressure_sealevel;temperature;humidity
16738;BME280;17906;47.684;10.806;2023-03-03T00:02:22;93242.38;;;-1.84;nan
16738;BME280;17906;47.684;10.806;2023-03-03T00:04:49;93237.91;;;-1.83;nan
16738;BME280;17906;47.684;10.806;2023-03-03T00:07:16;93245.03;;;-1.84;nan
16738;BME280;17906;47.684;10.806;2023-03-03T00:09:47;93245.88;;;-1.83;nan
16738;BME280;17906;47.684;10.806;2023-03-03T00:12:22;93240.28;;;-1.96;nan
16738;BME280;17906;47.684;10.806;2023-03-03T00:14:50;93244.44;;;-1.94;nan
16738;BME280;17906;47.684;10.806;2023-03-03T00:17:21;93236.09;;;-1.91;nan
16738;BME280;17906;47.684;10.806;2023-03-03T00:19:48;93246.56;;;-1.89;nan
16738;BME280;17906;47.684;10.806;2023-03-03T00:22:24;93248.53;;;-1.83;nan
16738;BME280;17906;47.684;10.806;2023-03-03T00:24:52;93245.22;;;-1.85;nan
16738;BME280;17906;47.684;10.806;2023-03-03T00:27:26;93249.72;;;-1.86;nan
16738;BME280;17906;47.684;10.806;2023-03-03T00:29:54;93250.19;;;-1.82;nan
16738;BME280;17906;47.684;10.806;2023-03-03T00:32:24;93251.66;;;-1.80;nan
16738;BME280;17906;47.684;10.806;2023-03-03T00:34:53;93250.34;;;-1.84;nan
16738;BME280;17906;47.684;10.806;2023-03-03T00:37:28;93252.47;;;-1.79;nan
16738;BME280;17906;47.684;10.806;2023-03-03T00:40:10;93248.22;;;-1.88;nan
16738;BME280;17906;47.684;10.806;2023-03-03T00:42:40;93261.63;;;-1.82;nan
16738;BME280;17906;47.684;10.806;2023-03-03T00:45:21;93258.81;;;-1.80;nan
16738;BME280;17906;47.684;10.806;2023-03-03T00:47:50;93254.31;;;-1.80;nan
16738;BME280;17906;47.684;10.806;2023-03-03T00:50:31;93253.00;;;-1.84;nan
16738;BME280;17906;47.684;10.806;2023-03-03T00:53:02;93258.66;;;-1.87;nan
16738;BME280;17906;47.684;10.806;2023-03-03T00:55:29;93258.31;;;-1.84;nan
16738;BME280;17906;47.684;10.806;2023-03-03T00:57:58;93250.47;;;-1.77;nan
16738;BME280;17906;47.684;10.806;2023-03-03T01:00:25;93255.78;;;-1.77;nan
16738;BME280;17906;47.684;10.806;2023-03-03T01:02:52;93245.66;;;-1.74;nan
16738;BME280;17906;47.684;10.806;2023-03-03T01:05:19;93246.81;;;-1.76;nan
16738;BME280;17906;47.684;10.806;2023-03-03T01:07:46;93253.31;;;-1.79;nan
16738;BME280;17906;47.684;10.806;2023-03-03T01:10:12;93247.00;;;-1.78;nan
16738;BME280;17906;47.684;10.806;2023-03-03T01:12:39;93251.81;;;-1.73;nan
16738;BME280;17906;47.684;10.806;2023-03-03T01:15:09;93258.31;;;-1.76;nan
16738;BME280;17906;47.684;10.806;2023-03-03T01:17:36;93255.75;;;-1.69;nan
16738;BME280;17906;47.684;10.806;2023-03-03T01:20:05;93245.13;;;-1.69;nan
16738;BME280;17906;47.684;10.806;2023-03-03T01:22:32;93247.59;;;-1.67;nan
16738;BME280;17906;47.684;10.806;2023-03-03T01:24:59;93251.59;;;-1.63;nan
16738;BME280;17906;47.684;10.806;2023-03-03T01:27:27;93244.44;;;-1.63;nan
16738;BME280;17906;47.684;10.806;2023-03-03T01:29:54;93254.91;;;-1.61;nan
16738;BME280;17906;47.684;10.806;2023-03-03T01:32:23;93250.75;;;-1.64;nan
16738;BME280;17906;47.684;10.806;2023-03-03T01:34:50;93248.59;;;-1.68;nan
16738;BME280;17906;47.684;10.806;2023-03-03T01:37:16;93251.88;;;-1.58;nan
16738;BME280;17906;47.684;10.806;2023-03-03T01:39:47;93258.56;;;-1.62;nan
16738;BME280;17906;47.684;10.806;2023-03-03T01:42:14;93252.91;;;-1.67;nan
16738;BME280;17906;47.684;10.806;2023-03-03T01:44:40;93247.94;;;-1.62;nan
16738;BME280;17906;47.684;10.806;2023-03-03T01:47:10;93244.00;;;-1.75;nan
16738;BME280;17906;47.684;10.806;2023-03-03T01:49:41;93251.63;;;-1.72;nan
16738;BME280;17906;47.684;10.806;2023-03-03T01:52:12;93249.53;;;-1.84;nan
16738;BME280;17906;47.684;10.806;2023-03-03T01:54:43;93243.72;;;-1.88;nan
16738;BME280;17906;47.684;10.806;2023-03-03T01:57:12;93244.91;;;-1.90;nan
16738;BME280;17906;47.684;10.806;2023-03-03T01:59:44;93240.06;;;-1.87;nan
16738;BME280;17906;47.684;10.806;2023-03-03T02:02:12;93251.97;;;-1.75;nan
16738;BME280;17906;47.684;10.806;2023-03-03T02:04:40;93245.03;;;-1.84;nan
16738;BME280;17906;47.684;10.806;2023-03-03T02:07:08;93240.69;;;-1.77;nan
16738;BME280;17906;47.684;10.806;2023-03-03T02:09:42;93236.69;;;-1.73;nan
16738;BME280;17906;47.684;10.806;2023-03-03T02:12:13;93234.53;;;-1.77;nan
16738;BME280;17906;47.684;10.806;2023-03-03T02:14:42;93236.88;;;-1.74;nan
16738;BME280;17906;47.684;10.806;2023-03-03T02:17:09;93235.03;;;-1.74;nan
16738;BME280;17906;47.684;10.806;2023-03-03T02:19:42;93234.75;;;-1.87;nan
16738;BME280;17906;47.684;10.806;2023-03-03T02:22:14;93229.31;;;-1.93;nan
16738;BME280;17906;47.684;10.806;2023-03-03T02:24:46;93232.16;;;-1.95;nan
16738;BME280;17906;47.684;10.806;2023-03-03T02:27:15;93238.94;;;-1.92;nan
16738;BME280;17906;47.684;10.806;2023-03-03T02:29:42;93244.91;;;-1.90;nan
16738;BME280;17906;47.684;10.806;2023-03-03T02:32:08;93231.13;;;-1.86;nan
16738;BME280;17906;47.684;10.806;2023-03-03T02:34:44;93230.28;;;-1.86;nan
16738;BME280;17906;47.684;10.806;2023-03-03T02:37:11;93229.94;;;-1.83;nan
16738;BME280;17906;47.684;10.806;2023-03-03T02:39:38;93229.44;;;-1.87;nan
16738;BME280;17906;47.684;10.806;2023-03-03T02:42:07;93217.66;;;-1.84;nan
16738;BME280;17906;47.684;10.806;2023-03-03T02:44:37;93228.41;;;-1.78;nan
16738;BME280;17906;47.684;10.806;2023-03-03T02:47:04;93226.75;;;-1.79;nan
16738;BME280;17906;47.684;10.806;2023-03-03T02:49:33;93228.94;;;-1.82;nan
16738;BME280;17906;47.684;10.806;2023-03-03T02:52:01;93226.13;;;-1.89;nan
16738;BME280;17906;47.684;10.806;2023-03-03T02:54:28;93237.47;;;-1.95;nan
16738;BME280;17906;47.684;10.806;2023-03-03T02:56:56;93232.28;;;-1.88;nan
16738;BME280;17906;47.684;10.806;2023-03-03T02:59:23;93239.03;;;-1.78;nan
16738;BME280;17906;47.684;10.806;2023-03-03T03:01:52;93230.72;;;-1.75;nan
16738;BME280;17906;47.684;10.806;2023-03-03T03:04:21;93233.53;;;-1.76;nan
16738;BME280;17906;47.684;10.806;2023-03-03T03:06:48;93227.25;;;-1.75;nan
16738;BME280;17906;47.684;10.806;2023-03-03T03:09:16;93231.06;;;-1.78;nan
16738;BME280;17906;47.684;10.806;2023-03-03T03:11:43;93231.56;;;-1.74;nan
16738;BME280;17906;47.684;10.806;2023-03-03T03:14:11;93222.75;;;-1.75;nan
16738;BME280;17906;47.684;10.806;2023-03-03T03:16:38;93221.78;;;-1.82;nan
16738;BME280;17906;47.684;10.806;2023-03-03T03:19:07;93228.75;;;-1.81;nan
16738;BME280;17906;47.684;10.806;2023-03-03T03:21:34;93220.59;;;-1.79;nan
16738;BME280;17906;47.684;10.806;2023-03-03T03:24:00;93209.78;;;-1.78;nan
16738;BME280;17906;47.684;10.806;2023-03-03T03:26:27;93215.28;;;-1.79;nan
16738;BME280;17906;47.684;10.806;2023-03-03T03:28:54;93207.13;;;-1.78;nan
16738;BME280;17906;47.684;10.806;2023-03-03T03:31:21;93199.66;;;-1.74;nan
16738;BME280;17906;47.684;10.806;2023-03-03T03:33:47;93192.97;;;-1.70;nan
16738;BME280;17906;47.684;10.806;2023-03-03T03:36:16;93194.16;;;-1.73;nan
16738;BME280;17906;47.684;10.806;2023-03-03T03:38:43;93199.00;;;-1.76;nan
16738;BME280;17906;47.684;10.806;2023-03-03T03:41:11;93200.81;;;-1.77;nan
16738;BME280;17906;47.684;10.806;2023-03-03T03:43:38;93195.19;;;-1.74;nan
16738;BME280;17906;47.684;10.806;2023-03-03T03:46:04;93198.84;;;-1.75;nan
16738;BME280;17906;47.684;10.806;2023-03-03T03:48:31;93209.28;;;-1.73;nan
16738;BME280;17906;47.684;10.806;2023-03-03T03:50:58;93187.22;;;-1.74;nan
16738;BME280;17906;47.684;10.806;2023-03-03T03:53:26;93200.13;;;-1.70;nan
16738;BME280;17906;47.684;10.806;2023-03-03T03:55:52;93197.53;;;-1.79;nan
16738;BME280;17906;47.684;10.806;2023-03-03T03:58:19;93204.81;;;-1.73;nan
16738;BME280;17906;47.684;10.806;2023-03-03T04:00:46;93201.97;;;-1.71;nan
16738;BME280;17906;47.684;10.806;2023-03-03T04:03:13;93195.47;;;-1.68;nan
16738;BME280;17906;47.684;10.806;2023-03-03T04:05:41;93188.00;;;-1.65;nan
16738;BME280;17906;47.684;10.806;2023-03-03T04:08:08;93186.50;;;-1.67;nan
16738;BME280;17906;47.684;10.806;2023-03-03T04:10:36;93185.84;;;-1.69;nan
16738;BME280;17906;47.684;10.806;2023-03-03T04:13:03;93177.34;;;-1.65;nan
16738;BME280;17906;47.684;10.806;2023-03-03T04:15:30;93192.44;;;-1.65;nan
16738;BME280;17906;47.684;10.806;2023-03-03T04:17:56;93176.63;;;-1.59;nan
16738;BME280;17906;47.684;10.806;2023-03-03T04:20:23;93177.81;;;-1.61;nan
16738;BME280;17906;47.684;10.806;2023-03-03T04:22:50;93179.06;;;-1.72;nan
16738;BME280;17906;47.684;10.806;2023-03-03T04:25:17;93177.88;;;-1.69;nan
16738;BME280;17906;47.684;10.806;2023-03-03T04:27:45;93180.84;;;-1.64;nan
16738;BME280;17906;47.684;10.806;2023-03-03T04:30:13;93180.47;;;-1.61;nan
16738;BME280;17906;47.684;10.806;2023-03-03T04:32:40;93177.81;;;-1.61;nan
16738;BME280;17906;47.684;10.806;2023-03-03T04:35:08;93167.66;;;-1.58;nan
16738;BME280;17906;47.684;10.806;2023-03-03T04:37:35;93177.09;;;-1.55;nan
16738;BME280;17906;47.684;10.806;2023-03-03T04:40:02;93185.78;;;-1.61;nan
16738;BME280;17906;47.684;10.806;2023-03-03T04:42:29;93189.22;;;-1.76;nan
16738;BME280;17906;47.684;10.806;2023-03-03T04:44:57;93185.69;;;-1.76;nan
16738;BME280;17906;47.684;10.806;2023-03-03T04:47:23;93186.19;;;-1.73;nan
16738;BME280;17906;47.684;10.806;2023-03-03T04:49:50;93182.22;;;-1.77;nan
16738;BME280;17906;47.684;10.806;2023-03-03T04:52:17;93190.97;;;-1.68;nan
16738;BME280;17906;47.684;10.806;2023-03-03T04:54:43;93195.34;;;-1.75;nan
16738;BME280;17906;47.684;10.806;2023-03-03T04:57:10;93192.25;;;-1.87;nan
16738;BME280;17906;47.684;10.806;2023-03-03T04:59:36;93192.25;;;-1.87;nan
16738;BME280;17906;47.684;10.806;2023-03-03T05:02:04;93199.44;;;-1.95;nan
16738;BME280;17906;47.684;10.806;2023-03-03T05:04:32;93205.75;;;-1.96;nan
16738;BME280;17906;47.684;10.806;2023-03-03T05:06:59;93215.25;;;-2.02;nan
16738;BME280;17906;47.684;10.806;2023-03-03T05:09:25;93207.63;;;-2.05;nan
16738;BME280;17906;47.684;10.806;2023-03-03T05:11:53;93209.06;;;-1.94;nan
16738;BME280;17906;47.684;10.806;2023-03-03T05:14:20;93213.38;;;-1.93;nan
16738;BME280;17906;47.684;10.806;2023-03-03T05:16:46;93215.19;;;-1.86;nan
16738;BME280;17906;47.684;10.806;2023-03-03T05:19:14;93217.34;;;-1.89;nan
16738;BME280;17906;47.684;10.806;2023-03-03T05:21:41;93217.03;;;-1.94;nan
16738;BME280;17906;47.684;10.806;2023-03-03T05:24:07;93217.25;;;-2.04;nan
16738;BME280;17906;47.684;10.806;2023-03-03T05:26:34;93231.19;;;-2.10;nan
16738;BME280;17906;47.684;10.806;2023-03-03T05:29:01;93226.72;;;-2.10;nan
16738;BME280;17906;47.684;10.806;2023-03-03T05:31:27;93224.75;;;-2.08;nan
16738;BME280;17906;47.684;10.806;2023-03-03T05:33:54;93224.56;;;-2.06;nan
16738;BME280;17906;47.684;10.806;2023-03-03T05:36:22;93224.84;;;-2.01;nan
16738;BME280;17906;47.684;10.806;2023-03-03T05:38:48;93229.56;;;-2.11;nan
16738;BME280;17906;47.684;10.806;2023-03-03T05:41:15;93215.63;;;-2.13;nan
16738;BME280;17906;47.684;10.806;2023-03-03T05:43:42;93230.88;;;-2.07;nan
16738;BME280;17906;47.684;10.806;2023-03-03T05:46:09;93212.78;;;-2.12;nan
16738;BME280;17906;47.684;10.806;2023-03-03T05:48:35;93224.84;;;-2.01;nan
16738;BME280;17906;47.684;10.806;2023-03-03T05:51:02;93224.34;;;-1.96;nan
16738;BME280;17906;47.684;10.806;2023-03-03T05:53:30;93230.16;;;-2.01;nan
16738;BME280;17906;47.684;10.806;2023-03-03T05:55:56;93237.13;;;-2.00;nan
16738;BME280;17906;47.684;10.806;2023-03-03T05:58:23;93232.44;;;-1.90;nan
16738;BME280;17906;47.684;10.806;2023-03-03T06:00:49;93237.91;;;-1.83;nan
16738;BME280;17906;47.684;10.806;2023-03-03T06:03:16;93229.41;;;-1.79;nan
16738;BME280;17906;47.684;10.806;2023-03-03T06:05:43;93228.09;;;-1.83;nan
16738;BME280;17906;47.684;10.806;2023-03-03T06:08:09;93222.25;;;-1.78;nan
16738;BME280;17906;47.684;10.806;2023-03-03T06:10:37;93236.72;;;-1.81;nan
16738;BME280;17906;47.684;10.806;2023-03-03T06:13:04;93238.00;;;-1.77;nan
16738;BME280;17906;47.684;10.806;2023-03-03T06:15:30;93239.16;;;-1.71;nan
16738;BME280;17906;47.684;10.806;2023-03-03T06:17:57;93233.50;;;-1.68;nan
16738;BME280;17906;47.684;10.806;2023-03-03T06:20:24;93227.66;;;-1.63;nan
16738;BME280;17906;47.684;10.806;2023-03-03T06:22:50;93239.59;;;-1.59;nan
16738;BME280;17906;47.684;10.806;2023-03-03T06:25:17;93236.94;;;-1.59;nan
16738;BME280;17906;47.684;10.806;2023-03-03T06:27:45;93247.84;;;-1.54;nan
16738;BME280;17906;47.684;10.806;2023-03-03T06:30:12;93243.91;;;-1.58;nan
16738;BME280;17906;47.684;10.806;2023-03-03T06:32:39;93250.03;;;-1.58;nan
16738;BME280;17906;47.684;10.806;2023-03-03T06:35:06;93255.81;;;-1.54;nan
16738;BME280;17906;47.684;10.806;2023-03-03T06:37:32;93256.84;;;-1.55;nan
16738;BME280;17906;47.684;10.806;2023-03-03T06:39:59;93261.16;;;-1.54;nan
16738;BME280;17906;47.684;10.806;2023-03-03T06:42:26;93257.97;;;-1.50;nan
16738;BME280;17906;47.684;10.806;2023-03-03T06:44:54;93262.72;;;-1.37;nan
16738;BME280;17906;47.684;10.806;2023-03-03T06:47:20;93259.69;;;-1.34;nan
16738;BME280;17906;47.684;10.806;2023-03-03T06:49:47;93269.88;;;-1.37;nan
16738;BME280;17906;47.684;10.806;2023-03-03T06:52:16;93274.53;;;-1.39;nan
16738;BME280;17906;47.684;10.806;2023-03-03T06:54:44;93278.06;;;-1.47;nan
16738;BME280;17906;47.684;10.806;2023-03-03T06:57:16;93280.22;;;-1.42;nan
16738;BME280;17906;47.684;10.806;2023-03-03T06:59:43;93280.50;;;-1.37;nan
16738;BME280;17906;47.684;10.806;2023-03-03T07:02:15;93281.28;;;-1.29;nan
16738;BME280;17906;47.684;10.806;2023-03-03T07:04:44;93291.28;;;-1.31;nan
16738;BME280;17906;47.684;10.806;2023-03-03T07:07:15;93288.44;;;-1.29;nan
16738;BME280;17906;47.684;10.806;2023-03-03T07:09:44;93295.28;;;-1.35;nan
16738;BME280;17906;47.684;10.806;2023-03-03T07:12:14;93305.03;;;-1.27;nan
16738;BME280;17906;47.684;10.806;2023-03-03T07:14:42;93304.50;;;-1.23;nan
16738;BME280;17906;47.684;10.806;2023-03-03T07:17:16;93308.34;;;-1.25;nan
16738;BME280;17906;47.684;10.806;2023-03-03T07:19:43;93309.50;;;-1.20;nan
16738;BME280;17906;47.684;10.806;2023-03-03T07:22:15;93314.63;;;-1.18;nan
16738;BME280;17906;47.684;10.806;2023-03-03T07:24:44;93310.41;;;-1.13;nan
16738;BME280;17906;47.684;10.806;2023-03-03T07:27:13;93319.38;;;-1.05;nan
16738;BME280;17906;47.684;10.806;2023-03-03T07:29:42;93319.72;;;-1.08;nan
16738;BME280;17906;47.684;10.806;2023-03-03T07:32:23;93317.16;;;-1.02;nan
16738;BME280;17906;47.684;10.806;2023-03-03T07:34:52;93320.09;;;-0.89;nan
16738;BME280;17906;47.684;10.806;2023-03-03T07:37:27;93322.44;;;-0.94;nan
16738;BME280;17906;47.684;10.806;2023-03-03T07:39:55;93317.75;;;-0.92;nan
16738;BME280;17906;47.684;10.806;2023-03-03T07:42:24;93330.56;;;-0.87;nan
16738;BME280;17906;47.684;10.806;2023-03-03T07:44:53;93320.09;;;-0.66;nan
16738;BME280;17906;47.684;10.806;2023-03-03T07:47:24;93327.66;;;-0.54;nan
16738;BME280;17906;47.684;10.806;2023-03-03T07:49:51;93331.31;;;-0.56;nan
16738;BME280;17906;47.684;10.806;2023-03-03T07:52:28;93334.06;;;-0.49;nan
16738;BME280;17906;47.684;10.806;2023-03-03T07:54:56;93326.47;;;-0.37;nan
16738;BME280;17906;47.684;10.806;2023-03-03T07:57:26;93329.84;;;-0.20;nan
16738;BME280;17906;47.684;10.806;2023-03-03T07:59:59;93336.19;;;-0.07;nan
16738;BME280;17906;47.684;10.806;2023-03-03T08:02:39;93337.47;;;-0.03;nan
16738;BME280;17906;47.684;10.806;2023-03-03T08:05:29;93330.84;;;-0.07;nan
16738;BME280;17906;47.684;10.806;2023-03-03T08:08:14;93330.72;;;0.10;nan
16738;BME280;17906;47.684;10.806;2023-03-03T08:10:46;93327.09;;;0.02;nan
16738;BME280;17906;47.684;10.806;2023-03-03T08:13:18;93328.03;;;0.10;nan
16738;BME280;17906;47.684;10.806;2023-03-03T08:15:47;93333.75;;;0.21;nan
16738;BME280;17906;47.684;10.806;2023-03-03T08:18:25;93345.03;;;0.38;nan
16738;BME280;17906;47.684;10.806;2023-03-03T08:20:57;93332.19;;;0.42;nan
16738;BME280;17906;47.684;10.806;2023-03-03T08:23:25;93339.63;;;0.46;nan
16738;BME280;17906;47.684;10.806;2023-03-03T08:25:52;93345.50;;;0.56;nan
16738;BME280;17906;47.684;10.806;2023-03-03T08:28:19;93348.16;;;0.56;nan
16738;BME280;17906;47.684;10.806;2023-03-03T08:30:47;93339.69;;;0.68;nan
16738;BME280;17906;47.684;10.806;2023-03-03T08:33:15;93349.09;;;0.64;nan
16738;BME280;17906;47.684;10.806;2023-03-03T08:35:43;93345.03;;;0.68;nan
16738;BME280;17906;47.684;10.806;2023-03-03T08:38:11;93349.72;;;0.66;nan
16738;BME280;17906;47.684;10.806;2023-03-03T08:40:38;93344.94;;;0.61;nan
16738;BME280;17906;47.684;10.806;2023-03-03T08:43:05;93352.09;;;0.60;nan
16738;BME280;17906;47.684;10.806;2023-03-03T08:45:33;93364.06;;;0.50;nan
16738;BME280;17906;47.684;10.806;2023-03-03T08:48:00;93356.00;;;0.43;nan
16738;BME280;17906;47.684;10.806;2023-03-03T08:50:28;93364.34;;;0.40;nan
16738;BME280;17906;47.684;10.806;2023-03-03T08:52:56;93364.63;;;0.45;nan
16738;BME280;17906;47.684;10.806;2023-03-03T08:55:23;93367.56;;;0.36;nan
16738;BME280;17906;47.684;10.806;2023-03-03T08:57:49;93360.22;;;0.38;nan
16738;BME280;17906;47.684;10.806;2023-03-03T09:00:17;93369.97;;;0.45;nan
16738;BME280;17906;47.684;10.806;2023-03-03T09:02:44;93361.41;;;0.35;nan
16738;BME280;17906;47.684;10.806;2023-03-03T09:05:11;93376.59;;;0.35;nan
16738;BME280;17906;47.684;10.806;2023-03-03T09:07:38;93361.66;;;0.40;nan
16738;BME280;17906;47.684;10.806;2023-03-03T09:10:08;93368.22;;;0.52;nan
16738;BME280;17906;47.684;10.806;2023-03-03T09:12:37;93364.88;;;0.50;nan
16738;BME280;17906;47.684;10.806;2023-03-03T09:15:13;93367.22;;;0.53;nan
16738;BME280;17906;47.684;10.806;2023-03-03T09:17:40;93363.44;;;0.48;nan
16738;BME280;17906;47.684;10.806;2023-03-03T09:20:31;93364.53;;;0.53;nan
16738;BME280;17906;47.684;10.806;2023-03-03T09:22:59;93364.97;;;0.72;nan
16738;BME280;17906;47.684;10.806;2023-03-03T09:25:43;93365.97;;;0.71;nan
16738;BME280;17906;47.684;10.806;2023-03-03T09:28:20;93365.59;;;0.74;nan
16738;BME280;17906;47.684;10.806;2023-03-03T09:30:49;93361.47;;;0.86;nan
16738;BME280;17906;47.684;10.806;2023-03-03T09:33:26;93361.47;;;0.86;nan
16738;BME280;17906;47.684;10.806;2023-03-03T09:35:56;93373.97;;;1.00;nan
16738;BME280;17906;47.684;10.806;2023-03-03T09:38:28;93379.19;;;1.08;nan
16738;BME280;17906;47.684;10.806;2023-03-03T09:41:11;93373.75;;;1.02;nan
16738;BME280;17906;47.684;10.806;2023-03-03T09:43:46;93371.91;;;1.02;nan
16738;BME280;17906;47.684;10.806;2023-03-03T09:46:22;93363.53;;;1.05;nan
16738;BME280;17906;47.684;10.806;2023-03-03T09:49:02;93370.91;;;1.03;nan
16738;BME280;17906;47.684;10.806;2023-03-03T09:51:41;93369.97;;;1.11;nan
16738;BME280;17906;47.684;10.806;2023-03-03T09:54:18;93382.44;;;0.89;nan
16738;BME280;17906;47.684;10.806;2023-03-03T09:56:53;93385.84;;;0.98;nan
16738;BME280;17906;47.684;10.806;2023-03-03T09:59:33;93381.69;;;0.95;nan
16738;BME280;17906;47.684;10.806;2023-03-03T10:02:18;93381.78;;;1.02;nan
16738;BME280;17906;47.684;10.806;2023-03-03T10:05:04;93380.28;;;1.14;nan
16738;BME280;17906;47.684;10.806;2023-03-03T10:07:43;93382.19;;;1.20;nan
16738;BME280;17906;47.684;10.806;2023-03-03T10:10:42;93375.56;;;1.16;nan
16738;BME280;17906;47.684;10.806;2023-03-03T10:13:30;93380.75;;;1.17;nan
16738;BME280;17906;47.684;10.806;2023-03-03T10:16:28;93369.53;;;1.07;nan
16738;BME280;17906;47.684;10.806;2023-03-03T10:19:09;93383.75;;;1.14;nan
16738;BME280;17906;47.684;10.806;2023-03-03T10:21:47;93389.53;;;0.97;nan
16738;BME280;17906;47.684;10.806;2023-03-03T10:24:26;93388.50;;;0.98;nan
16738;BME280;17906;47.684;10.806;2023-03-03T10:27:06;93384.00;;;0.98;nan
16738;BME280;17906;47.684;10.806;2023-03-03T10:29:43;93385.81;;;1.12;nan
16738;BME280;17906;47.684;10.806;2023-03-03T10:32:36;93387.00;;;1.10;nan
16738;BME280;17906;47.684;10.806;2023-03-03T10:35:17;93388.03;;;0.94;nan
16738;BME280;17906;47.684;10.806;2023-03-03T10:38:01;93380.38;;;1.06;nan
16738;BME280;17906;47.684;10.806;2023-03-03T10:40:40;93383.56;;;1.16;nan
16738;BME280;17906;47.684;10.806;2023-03-03T10:43:23;93383.09;;;1.27;nan
16738;BME280;17906;47.684;10.806;2023-03-03T10:49:29;93389.13;;;1.36;nan
16738;BME280;17906;47.684;10.806;2023-03-03T10:52:18;93388.72;;;1.54;nan
16738;BME280;17906;47.684;10.806;2023-03-03T10:55:03;93387.59;;;1.63;nan
16738;BME280;17906;47.684;10.806;2023-03-03T10:57:38;93385.84;;;1.55;nan
16738;BME280;17906;47.684;10.806;2023-03-03T11:00:16;93389.94;;;1.72;nan
16738;BME280;17906;47.684;10.806;2023-03-03T11:03:00;93392.41;;;1.74;nan
16738;BME280;17906;47.684;10.806;2023-03-03T11:05:38;93394.50;;;1.57;nan
16738;BME280;17906;47.684;10.806;2023-03-03T11:08:09;93388.59;;;1.62;nan
16738;BME280;17906;47.684;10.806;2023-03-03T11:10:49;93393.28;;;1.60;nan
16738;BME280;17906;47.684;10.806;2023-03-03T11:13:20;93397.28;;;1.49;nan
16738;BME280;17906;47.684;10.806;2023-03-03T11:16:26;93398.59;;;1.53;nan
16738;BME280;17906;47.684;10.806;2023-03-03T11:19:07;93393.75;;;1.63;nan
16738;BME280;17906;47.684;10.806;2023-03-03T11:21:40;93396.47;;;1.48;nan
16738;BME280;17906;47.684;10.806;2023-03-03T11:24:19;93400.94;;;1.41;nan
16738;BME280;17906;47.684;10.806;2023-03-03T11:26:57;93397.25;;;1.28;nan
16738;BME280;17906;47.684;10.806;2023-03-03T11:29:46;93394.25;;;1.16;nan
16738;BME280;17906;47.684;10.806;2023-03-03T11:32:22;93394.44;;;1.29;nan
16738;BME280;17906;47.684;10.806;2023-03-03T11:35:11;93391.75;;;1.29;nan
16738;BME280;17906;47.684;10.806;2023-03-03T11:37:45;93392.72;;;1.43;nan
16738;BME280;17906;47.684;10.806;2023-03-03T11:40:19;93384.28;;;1.25;nan
16738;BME280;17906;47.684;10.806;2023-03-03T11:42:57;93382.00;;;1.22;nan
16738;BME280;17906;47.684;10.806;2023-03-03T11:45:31;93380.59;;;1.40;nan
16738;BME280;17906;47.684;10.806;2023-03-03T11:48:05;93383.94;;;1.49;nan
16738;BME280;17906;47.684;10.806;2023-03-03T11:50:42;93376.19;;;1.54;nan
16738;BME280;17906;47.684;10.806;2023-03-03T11:53:25;93371.59;;;1.48;nan
16738;BME280;17906;47.684;10.806;2023-03-03T11:55:56;93377.19;;;1.32;nan
16738;BME280;17906;47.684;10.806;2023-03-03T11:58:28;93364.66;;;1.32;nan
16738;BME280;17906;47.684;10.806;2023-03-03T12:01:00;93357.22;;;1.49;nan
16738;BME280;17906;47.684;10.806;2023-03-03T12:03:33;93369.72;;;1.63;nan
16738;BME280;17906;47.684;10.806;2023-03-03T12:06:14;93356.66;;;1.54;nan
16738;BME280;17906;47.684;10.806;2023-03-03T12:09:18;93362.56;;;1.49;nan
16738;BME280;17906;47.684;10.806;2023-03-03T12:11:49;93363.28;;;1.58;nan
16738;BME280;17906;47.684;10.806;2023-03-03T12:17:28;93368.63;;;1.58;nan
16738;BME280;17906;47.684;10.806;2023-03-03T12:20:07;93361.56;;;1.50;nan
16738;BME280;17906;47.684;10.806;2023-03-03T12:22:41;93369.56;;;1.29;nan
16738;BME280;17906;47.684;10.806;2023-03-03T12:25:34;93360.97;;;1.33;nan
16738;BME280;17906;47.684;10.806;2023-03-03T12:28:05;93363.72;;;1.40;nan
16738;BME280;17906;47.684;10.806;2023-03-03T12:30:57;93365.19;;;1.42;nan
16738;BME280;17906;47.684;10.806;2023-03-03T12:33:36;93359.56;;;1.37;nan
16738;BME280;17906;47.684;10.806;2023-03-03T12:36:19;93358.81;;;1.43;nan
16738;BME280;17906;47.684;10.806;2023-03-03T12:38:55;93355.22;;;1.51;nan
16738;BME280;17906;47.684;10.806;2023-03-03T12:41:32;93370.41;;;1.51;nan
16738;BME280;17906;47.684;10.806;2023-03-03T12:44:05;93363.53;;;1.41;nan
16738;BME280;17906;47.684;10.806;2023-03-03T12:46:44;93356.69;;;1.39;nan
16738;BME280;17906;47.684;10.806;2023-03-03T12:49:11;93355.72;;;1.40;nan
16738;BME280;17906;47.684;10.806;2023-03-03T12:51:50;93352.28;;;1.46;nan
16738;BME280;17906;47.684;10.806;2023-03-03T12:54:55;93358.94;;;1.35;nan
16738;BME280;17906;47.684;10.806;2023-03-03T12:57:33;93359.75;;;1.36;nan
16738;BME280;17906;47.684;10.806;2023-03-03T13:00:22;93353.56;;;1.50;nan
16738;BME280;17906;47.684;10.806;2023-03-03T13:02:58;93363.72;;;1.40;nan
16738;BME280;17906;47.684;10.806;2023-03-03T13:05:30;93360.53;;;1.30;nan
16738;BME280;17906;47.684;10.806;2023-03-03T13:08:17;93368.59;;;1.36;nan
16738;BME280;17906;47.684;10.806;2023-03-03T13:10:51;93363.84;;;1.53;nan
16738;BME280;17906;47.684;10.806;2023-03-03T13:13:25;93373.13;;;1.57;nan
16738;BME280;17906;47.684;10.806;2023-03-03T13:16:00;93363.91;;;1.38;nan
16738;BME280;17906;47.684;10.806;2023-03-03T13:18:37;93367.66;;;1.44;nan
16738;BME280;17906;47.684;10.806;2023-03-03T13:21:15;93368.09;;;1.47;nan
16738;BME280;17906;47.684;10.806;2023-03-03T13:23:50;93367.47;;;1.67;nan
16738;BME280;17906;47.684;10.806;2023-03-03T13:26:24;93364.59;;;1.47;nan
16738;BME280;17906;47.684;10.806;2023-03-03T13:29:02;93359.16;;;1.55;nan
16738;BME280;17906;47.684;10.806;2023-03-03T13:31:32;93362.06;;;1.60;nan
16738;BME280;17906;47.684;10.806;2023-03-03T13:34:00;93370.13;;;1.45;nan
16738;BME280;17906;47.684;10.806;2023-03-03T13:36:29;93359.66;;;1.44;nan
16738;BME280;17906;47.684;10.806;2023-03-03T13:39:03;93368.59;;;1.36;nan
16738;BME280;17906;47.684;10.806;2023-03-03T13:41:43;93368.06;;;1.41;nan
16738;BME280;17906;47.684;10.806;2023-03-03T13:44:17;93362.00;;;1.32;nan
16738;BME280;17906;47.684;10.806;2023-03-03T13:46:55;93353.41;;;1.58;nan